createdAt,value
2023-04-19T00:00:01.505Z,4.07
2023-04-19T00:02:30.395Z,4.15
2023-04-19T00:04:59.348Z,4.22
2023-04-19T00:07:28.119Z,4.05
2023-04-19T00:09:56.869Z,4.45
2023-04-19T00:12:25.665Z,4.20
2023-04-19T00:14:55.890Z,5.05
2023-04-19T00:17:24.679Z,4.05
2023-04-19T00:19:53.456Z,4.20
2023-04-19T00:22:22.229Z,4.10
2023-04-19T00:24:50.967Z,3.88
2023-04-19T00:27:19.724Z,4.72
2023-04-19T00:29:48.529Z,4.07
2023-04-19T00:32:18.724Z,4.38
2023-04-19T00:34:47.488Z,4.43
2023-04-19T00:37:16.267Z,4.95
2023-04-19T00:39:45.007Z,4.28
2023-04-19T00:42:13.688Z,3.55
2023-04-19T00:44:43.896Z,3.38
2023-04-19T00:47:12.742Z,3.72
2023-04-19T00:49:42.998Z,3.45
2023-04-19T00:52:12.959Z,3.58
2023-04-19T00:54:44.327Z,3.35
2023-04-19T00:57:15.737Z,4.53
2023-04-19T00:59:44.696Z,4.07
2023-04-19T01:02:13.486Z,4.03
2023-04-19T01:04:43.868Z,4.03
2023-04-19T01:07:12.786Z,4.03
2023-04-19T01:09:46.497Z,4.30
2023-04-19T01:12:15.264Z,4.43
2023-04-19T01:14:44.928Z,4.07
2023-04-19T01:17:14.726Z,4.20
2023-04-19T01:19:44.967Z,4.30
2023-04-19T01:22:20.636Z,4.22
2023-04-19T01:24:49.401Z,4.82
2023-04-19T01:27:20.107Z,4.60
2023-04-19T01:29:48.948Z,6.23
2023-04-19T01:32:19.275Z,4.53
2023-04-19T01:34:48.321Z,4.43
2023-04-19T01:37:18.588Z,4.35
2023-04-19T01:39:47.350Z,4.57
2023-04-19T01:42:16.115Z,4.50
2023-04-19T01:44:44.869Z,4.63
2023-04-19T01:47:13.600Z,4.90
2023-04-19T01:49:42.442Z,4.90
2023-04-19T01:52:11.596Z,6.77
2023-04-19T01:54:41.708Z,4.47
2023-04-19T01:57:10.411Z,6.90
2023-04-19T01:59:39.512Z,4.60
2023-04-19T02:02:09.419Z,4.40
2023-04-19T02:04:38.304Z,4.00
2023-04-19T02:07:08.060Z,4.50
2023-04-19T02:09:37.668Z,4.17
2023-04-19T02:12:08.475Z,3.67
2023-04-19T02:14:37.302Z,3.77
2023-04-19T02:17:06.088Z,3.70
2023-04-19T02:19:34.856Z,3.53
2023-04-19T02:22:03.835Z,3.97
2023-04-19T02:24:32.660Z,3.83
2023-04-19T02:27:04.178Z,4.43
2023-04-19T02:29:36.001Z,4.40
2023-04-19T02:32:07.259Z,4.47
2023-04-19T02:34:36.426Z,4.90
2023-04-19T02:37:05.170Z,4.07
2023-04-19T02:39:34.667Z,3.90
2023-04-19T02:42:03.569Z,3.90
2023-04-19T02:44:32.346Z,4.40
2023-04-19T02:47:02.509Z,4.37
2023-04-19T02:49:36.628Z,4.53
2023-04-19T02:52:06.315Z,4.43
2023-04-19T02:54:35.677Z,4.27
2023-04-19T02:57:04.773Z,4.10
2023-04-19T02:59:33.476Z,4.17
2023-04-19T03:02:05.990Z,3.97
2023-04-19T03:04:34.834Z,4.20
2023-04-19T03:07:03.809Z,4.87
2023-04-19T03:09:33.118Z,4.90
2023-04-19T03:12:02.654Z,5.90
2023-04-19T03:14:31.435Z,6.13
2023-04-19T03:17:00.221Z,4.93
2023-04-19T03:19:30.445Z,5.13
2023-04-19T03:21:59.190Z,4.57
2023-04-19T03:24:32.118Z,4.70
2023-04-19T03:27:10.134Z,4.67
2023-04-19T03:29:39.019Z,6.10
2023-04-19T03:32:13.519Z,8.13
2023-04-19T03:34:43.824Z,8.60
2023-04-19T03:37:13.862Z,6.97
2023-04-19T03:39:43.124Z,9.47
2023-04-19T03:42:17.720Z,6.57
2023-04-19T03:44:51.816Z,5.57
2023-04-19T03:47:21.288Z,7.57
2023-04-19T03:49:53.444Z,5.53
2023-04-19T03:52:23.027Z,7.07
2023-04-19T03:54:53.405Z,5.20
2023-04-19T03:57:42.409Z,5.07
2023-04-19T04:00:27.644Z,5.60
2023-04-19T04:03:01.206Z,6.37
2023-04-19T04:05:34.325Z,5.77
2023-04-19T04:08:03.868Z,8.03
2023-04-19T04:10:33.579Z,8.03
2023-04-19T04:13:02.640Z,8.43
2023-04-19T04:15:51.269Z,6.50
2023-04-19T04:18:20.069Z,6.07
2023-04-19T04:20:51.226Z,5.97
2023-04-19T04:23:21.671Z,5.73
2023-04-19T04:25:59.402Z,5.87
2023-04-19T04:28:33.590Z,5.50
2023-04-19T04:31:02.945Z,5.53
2023-04-19T04:33:34.788Z,7.13
2023-04-19T04:36:09.725Z,5.50
2023-04-19T04:38:39.720Z,5.10
2023-04-19T04:41:08.929Z,4.63
2023-04-19T04:43:38.475Z,4.87
2023-04-19T04:46:07.947Z,5.40
2023-04-19T04:48:40.928Z,4.37
2023-04-19T04:51:11.181Z,4.57
2023-04-19T04:53:41.620Z,4.70
2023-04-19T04:56:11.779Z,5.43
2023-04-19T04:58:40.858Z,5.10
2023-04-19T05:01:14.074Z,4.87
2023-04-19T05:03:43.932Z,5.13
2023-04-19T05:06:18.367Z,4.77
2023-04-19T05:08:47.369Z,6.53
2023-04-19T05:11:22.160Z,5.50
2023-04-19T05:13:51.068Z,5.20
2023-04-19T05:16:20.134Z,5.10
2023-04-19T05:18:51.226Z,4.70
2023-04-19T05:21:23.130Z,4.20
2023-04-19T05:23:53.774Z,5.10
2023-04-19T05:26:22.952Z,5.33
2023-04-19T05:28:52.916Z,5.57
2023-04-19T05:31:37.290Z,5.27
2023-04-19T05:34:21.387Z,5.20
2023-04-19T05:36:52.715Z,6.00
2023-04-19T05:39:21.487Z,4.93
2023-04-19T05:41:50.299Z,4.70
2023-04-19T05:44:19.148Z,4.53
2023-04-19T05:46:47.936Z,4.80
2023-04-19T05:49:22.788Z,6.70
2023-04-19T05:52:11.429Z,5.13
2023-04-19T05:54:53.964Z,4.93
2023-04-19T05:57:22.941Z,4.77
2023-04-19T05:59:51.860Z,4.67
2023-04-19T06:02:24.786Z,5.30
2023-04-19T06:04:53.826Z,5.30
2023-04-19T06:07:32.091Z,6.63
2023-04-19T06:10:03.365Z,5.40
2023-04-19T06:12:32.162Z,5.73
2023-04-19T06:15:01.008Z,6.73
2023-04-19T06:17:30.263Z,5.33
2023-04-19T06:20:00.155Z,7.47
2023-04-19T06:22:30.368Z,6.33
2023-04-19T06:24:59.126Z,9.37
2023-04-19T06:27:28.000Z,5.67
2023-04-19T06:29:56.697Z,7.63
2023-04-19T06:32:27.570Z,6.20
2023-04-19T06:34:56.388Z,11.67
2023-04-19T06:37:25.240Z,8.63
2023-04-19T06:39:57.850Z,6.20
2023-04-19T06:42:27.560Z,6.50
2023-04-19T06:44:57.646Z,6.67
2023-04-19T06:47:26.433Z,6.40
2023-04-19T06:49:55.491Z,7.70
2023-04-19T06:52:24.278Z,6.93
2023-04-19T06:54:54.750Z,6.10
2023-04-19T06:57:23.596Z,6.60
2023-04-19T06:59:56.250Z,6.33
2023-04-19T07:02:25.324Z,7.17
2023-04-19T07:04:54.284Z,6.93
2023-04-19T07:07:23.093Z,7.43
2023-04-19T07:09:51.875Z,6.80
2023-04-19T07:12:22.056Z,7.43
2023-04-19T07:14:56.516Z,7.23
2023-04-19T07:17:26.875Z,7.87
2023-04-19T07:19:56.390Z,7.95
2023-04-19T07:22:25.241Z,6.85
2023-04-19T07:24:54.228Z,6.82
2023-04-19T07:27:24.498Z,7.07
2023-04-19T07:29:54.120Z,7.22
2023-04-19T07:32:23.152Z,7.65
2023-04-19T07:34:52.037Z,7.80
2023-04-19T07:37:22.355Z,7.13
2023-04-19T07:39:51.203Z,6.70
2023-04-19T07:42:20.176Z,7.45
2023-04-19T07:44:50.495Z,7.38
2023-04-19T07:47:19.285Z,6.53
2023-04-19T07:49:48.035Z,7.22
2023-04-19T07:52:18.522Z,7.80
2023-04-19T07:54:47.321Z,6.70
2023-04-19T07:57:16.092Z,8.50
2023-04-19T07:59:44.832Z,8.13
2023-04-19T08:02:16.737Z,8.45
2023-04-19T08:04:48.597Z,7.07
2023-04-19T08:07:17.603Z,7.30
2023-04-19T08:09:46.481Z,9.80
2023-04-19T08:12:30.396Z,7.30
2023-04-19T08:15:15.232Z,7.72
2023-04-19T08:17:54.475Z,8.05
2023-04-19T08:20:23.550Z,7.20
2023-04-19T08:22:52.349Z,8.10
2023-04-19T08:25:23.817Z,7.97
2023-04-19T08:27:52.552Z,7.65
2023-04-19T08:30:21.534Z,8.18
2023-04-19T08:32:51.224Z,7.65
2023-04-19T08:35:22.468Z,7.57
2023-04-19T08:37:51.378Z,7.25
2023-04-19T08:40:20.381Z,8.45
2023-04-19T08:42:49.179Z,7.93
2023-04-19T08:45:27.709Z,8.02
2023-04-19T08:48:01.159Z,9.45
2023-04-19T08:50:38.738Z,8.95
2023-04-19T08:53:24.697Z,8.52
2023-04-19T08:56:12.785Z,7.82
2023-04-19T08:59:03.993Z,8.90
2023-04-19T09:01:36.466Z,8.60
2023-04-19T09:04:21.581Z,8.60
2023-04-19T09:06:57.469Z,10.57
2023-04-19T09:11:59.680Z,8.73
2023-04-19T09:14:29.467Z,7.43
2023-04-19T09:17:14.917Z,10.20
2023-04-19T09:19:50.902Z,6.47
2023-04-19T09:22:21.728Z,7.72
2023-04-19T09:27:29.077Z,10.40
2023-04-19T09:29:58.840Z,7.55
2023-04-19T09:32:28.822Z,8.77
2023-04-19T09:34:59.254Z,9.80
2023-04-19T09:37:51.476Z,4.22
2023-04-19T09:40:24.855Z,4.25
2023-04-19T09:45:30.143Z,3.47
2023-04-19T09:48:04.517Z,3.53
2023-04-19T09:50:35.959Z,3.60
2023-04-19T09:53:14.640Z,4.70
2023-04-19T09:55:53.360Z,4.95
2023-04-19T09:58:31.804Z,4.88
2023-04-19T10:01:14.777Z,6.68
2023-04-19T10:03:50.930Z,5.07
2023-04-19T10:08:56.484Z,6.13
2023-04-19T10:11:30.689Z,6.30
2023-04-19T10:14:02.826Z,6.15
2023-04-19T10:16:32.824Z,5.32
2023-04-19T10:19:02.545Z,6.57
2023-04-19T10:21:32.114Z,6.63
2023-04-19T10:24:02.924Z,5.63
2023-04-19T10:26:31.617Z,7.72
2023-04-19T10:29:00.384Z,6.95
2023-04-19T10:31:29.156Z,6.82
2023-04-19T10:33:58.627Z,6.35
2023-04-19T10:36:30.153Z,8.70
2023-04-19T10:38:58.966Z,7.82
2023-04-19T10:42:07.039Z,8.75
2023-04-19T10:44:35.873Z,9.95
2023-04-19T10:47:08.048Z,8.43
2023-04-19T10:49:46.585Z,8.40
2023-04-19T10:52:29.850Z,7.60
2023-04-19T10:54:58.698Z,7.85
2023-04-19T10:57:28.991Z,5.40
2023-04-19T11:00:22.309Z,4.68
2023-04-19T11:02:51.263Z,5.65
2023-04-19T11:05:20.439Z,5.35
2023-04-19T11:07:49.266Z,5.53
2023-04-19T11:10:30.298Z,5.00
2023-04-19T11:13:00.849Z,5.97
2023-04-19T11:15:29.614Z,6.07
2023-04-19T11:18:12.010Z,5.53
2023-04-19T11:20:45.133Z,5.28
2023-04-19T11:23:18.570Z,6.03
2023-04-19T11:25:48.645Z,5.85
2023-04-19T11:28:19.118Z,6.57
2023-04-19T11:30:47.972Z,6.28
2023-04-19T11:33:16.780Z,7.18
2023-04-19T11:35:45.644Z,7.20
2023-04-19T11:38:15.077Z,7.10
2023-04-19T11:40:44.005Z,9.10
2023-04-19T11:43:12.859Z,7.07
2023-04-19T11:45:43.088Z,6.90
2023-04-19T11:48:16.508Z,7.28
2023-04-19T11:50:46.832Z,7.10
2023-04-19T11:53:17.230Z,7.25
2023-04-19T11:55:47.750Z,7.90
2023-04-19T11:58:29.288Z,6.57
2023-04-19T12:01:04.245Z,7.30
2023-04-19T12:03:33.666Z,7.22
2023-04-19T12:06:05.318Z,5.95
2023-04-19T12:08:36.415Z,7.05
2023-04-19T12:11:06.585Z,6.50
2023-04-19T12:13:36.606Z,6.25
2023-04-19T12:16:07.336Z,6.63
2023-04-19T12:18:49.120Z,6.03
2023-04-19T12:21:28.888Z,6.80
2023-04-19T12:23:58.586Z,6.32
2023-04-19T12:26:28.453Z,5.60
2023-04-19T12:28:57.329Z,5.63
2023-04-19T12:31:27.876Z,5.90
2023-04-19T12:33:56.693Z,6.97
2023-04-19T12:36:26.557Z,4.85
2023-04-19T12:38:55.348Z,5.78
2023-04-19T12:41:24.364Z,4.68
2023-04-19T12:43:53.133Z,7.13
2023-04-19T12:46:21.995Z,8.18
2023-04-19T12:48:52.238Z,5.82
2023-04-19T12:51:20.993Z,5.32
2023-04-19T12:53:50.541Z,6.22
2023-04-19T12:56:19.933Z,5.55
2023-04-19T12:58:48.709Z,5.20
2023-04-19T13:01:19.710Z,3.90
2023-04-19T13:03:48.748Z,4.40
2023-04-19T13:06:19.115Z,3.17
2023-04-19T13:08:48.166Z,5.20
2023-04-19T13:11:23.359Z,3.70
2023-04-19T13:13:53.812Z,4.22
2023-04-19T13:16:24.961Z,3.88
2023-04-19T13:18:54.867Z,5.03
2023-04-19T13:21:25.282Z,3.75
2023-04-19T13:23:54.102Z,2.90
2023-04-19T13:26:22.981Z,2.67
2023-04-19T13:28:51.772Z,2.92
2023-04-19T13:31:20.545Z,4.13
2023-04-19T13:33:49.428Z,3.10
2023-04-19T13:36:18.212Z,3.10
2023-04-19T13:38:49.083Z,3.70
2023-04-19T13:41:17.817Z,3.95
2023-04-19T13:43:47.086Z,3.88
2023-04-19T13:46:15.774Z,4.05
2023-04-19T13:48:44.575Z,4.82
2023-04-19T13:51:13.713Z,3.60
2023-04-19T13:53:42.424Z,3.55
2023-04-19T13:56:12.700Z,3.78
2023-04-19T13:58:41.557Z,4.90
2023-04-19T14:01:10.372Z,5.65
2023-04-19T14:03:39.404Z,3.80
2023-04-19T14:06:08.508Z,2.88
2023-04-19T14:08:37.222Z,4.30
2023-04-19T14:11:06.474Z,7.82
2023-04-19T14:13:36.658Z,5.82
2023-04-19T14:16:06.090Z,6.35
2023-04-19T14:18:35.356Z,5.95
2023-04-19T14:21:04.562Z,6.32
2023-04-19T14:23:34.370Z,5.90
2023-04-19T14:26:03.380Z,6.38
2023-04-19T14:28:32.210Z,7.00
2023-04-19T14:31:02.371Z,6.18
2023-04-19T14:33:31.368Z,7.00
2023-04-19T14:36:00.160Z,6.90
2023-04-19T14:38:29.019Z,7.88
2023-04-19T14:40:57.974Z,7.55
2023-04-19T14:43:26.862Z,7.47
2023-04-19T14:45:55.704Z,7.38
2023-04-19T14:48:26.555Z,11.68
2023-04-19T14:50:55.523Z,8.70
2023-04-19T14:53:24.254Z,8.18
2023-04-19T14:55:53.072Z,7.72
2023-04-19T14:58:21.991Z,7.03
2023-04-19T15:00:50.724Z,7.47
2023-04-19T15:03:19.872Z,6.57
2023-04-19T15:05:52.437Z,8.10
2023-04-19T15:08:30.027Z,6.90
2023-04-19T15:10:59.759Z,7.13
2023-04-19T15:13:29.898Z,7.55
2023-04-19T15:16:00.563Z,7.53
2023-04-19T15:18:30.722Z,6.18
2023-04-19T15:21:01.037Z,6.75
2023-04-19T15:23:29.854Z,7.93
2023-04-19T15:25:58.755Z,8.32
2023-04-19T15:28:28.059Z,9.38
2023-04-19T15:31:00.217Z,7.13
2023-04-19T15:33:29.668Z,11.13
2023-04-19T15:36:00.729Z,9.32
2023-04-19T15:38:32.597Z,7.15
2023-04-19T15:41:01.995Z,8.00
2023-04-19T15:43:30.853Z,6.68
2023-04-19T15:45:59.636Z,7.40
2023-04-19T15:48:29.935Z,7.05
2023-04-19T15:50:59.156Z,7.88
2023-04-19T15:53:29.549Z,11.57
2023-04-19T15:55:58.452Z,5.57
2023-04-19T15:58:27.126Z,7.60
2023-04-19T16:00:55.905Z,6.53
2023-04-19T16:03:24.803Z,7.97
2023-04-19T16:05:53.627Z,9.38
2023-04-19T16:08:22.394Z,10.25
2023-04-19T16:10:52.627Z,8.70
2023-04-19T16:13:21.396Z,11.00
2023-04-19T16:15:50.061Z,14.50
2023-04-19T16:18:18.857Z,11.00
2023-04-19T16:20:47.614Z,10.70
2023-04-19T16:23:16.636Z,9.43
2023-04-19T16:25:46.299Z,9.25
2023-04-19T16:28:16.585Z,11.20
2023-04-19T16:30:47.530Z,8.75
2023-04-19T16:33:16.653Z,9.52
2023-04-19T16:35:46.798Z,9.00
2023-04-19T16:38:15.628Z,9.93
2023-04-19T16:40:47.892Z,9.40
2023-04-19T16:43:20.866Z,8.48
2023-04-19T16:45:49.751Z,8.73
2023-04-19T16:48:18.594Z,10.88
2023-04-19T16:50:47.658Z,8.25
2023-04-19T16:53:16.560Z,8.95
2023-04-19T16:55:45.385Z,10.95
2023-04-19T16:58:14.143Z,9.07
2023-04-19T17:00:44.487Z,8.18
2023-04-19T17:03:14.569Z,8.15
2023-04-19T17:05:43.370Z,7.90
2023-04-19T17:08:12.295Z,7.40
2023-04-19T17:10:41.274Z,7.72
2023-04-19T17:13:09.966Z,8.55
2023-04-19T17:15:39.561Z,7.95
2023-04-19T17:18:10.398Z,8.10
2023-04-19T17:20:39.199Z,8.27
2023-04-19T17:23:08.035Z,7.57
2023-04-19T17:25:36.727Z,5.85
2023-04-19T17:28:06.109Z,6.30
2023-04-19T17:30:34.906Z,6.22
2023-04-19T17:33:03.795Z,6.05
2023-04-19T17:35:33.951Z,4.97
2023-04-19T17:38:04.307Z,5.65
2023-04-19T17:40:33.094Z,9.48
2023-04-19T17:43:02.171Z,4.93
2023-04-19T17:45:30.984Z,4.65
2023-04-19T17:48:00.131Z,4.40
2023-04-19T17:50:30.122Z,8.18
2023-04-19T17:53:00.605Z,4.53
2023-04-19T17:55:29.336Z,4.90
2023-04-19T17:57:58.128Z,5.75
2023-04-19T18:00:27.149Z,6.28
2023-04-19T18:02:56.039Z,5.47
2023-04-19T18:05:25.063Z,5.22
2023-04-19T18:07:54.101Z,6.93
2023-04-19T18:10:24.527Z,4.90
2023-04-19T18:12:53.992Z,7.88
2023-04-19T18:15:22.824Z,4.78
2023-04-19T18:17:51.822Z,5.15
2023-04-19T18:20:21.409Z,5.15
2023-04-19T18:22:51.617Z,5.30
2023-04-19T18:25:20.630Z,5.68
2023-04-19T18:27:51.618Z,5.45
2023-04-19T18:30:20.614Z,6.20
2023-04-19T18:32:49.389Z,7.72
2023-04-19T18:35:18.218Z,6.13
2023-04-19T18:37:47.428Z,7.20
2023-04-19T18:40:16.355Z,6.95
2023-04-19T18:42:45.104Z,7.70
2023-04-19T18:45:15.835Z,8.90
2023-04-19T18:47:44.604Z,9.55
2023-04-19T18:50:18.280Z,12.10
2023-04-19T18:52:48.074Z,9.32
2023-04-19T18:55:16.868Z,7.68
2023-04-19T18:57:45.652Z,7.85
2023-04-19T19:00:17.460Z,14.40
2023-04-19T19:02:46.466Z,9.35
2023-04-19T19:05:16.607Z,9.02
2023-04-19T19:07:46.048Z,12.32
2023-04-19T19:10:18.911Z,9.13
2023-04-19T19:12:49.935Z,8.37
2023-04-19T19:15:22.949Z,7.83
2023-04-19T19:17:51.902Z,7.60
2023-04-19T19:20:21.059Z,7.63
2023-04-19T19:22:51.332Z,8.23
2023-04-19T19:25:20.617Z,8.50
2023-04-19T19:30:29.720Z,7.53
2023-04-19T19:32:59.336Z,7.77
2023-04-19T19:35:29.564Z,7.00
2023-04-19T19:37:58.403Z,6.70
2023-04-19T19:40:31.106Z,5.53
2023-04-19T19:43:02.114Z,6.60
2023-04-19T19:45:32.745Z,4.80
2023-04-19T19:48:02.060Z,6.13
2023-04-19T19:53:03.795Z,4.83
2023-04-19T19:55:36.123Z,4.53
2023-04-19T20:00:46.265Z,3.90
2023-04-19T20:03:28.349Z,5.20
2023-04-19T20:06:35.712Z,4.80
2023-04-19T20:08:56.270Z,6.07
2023-04-19T20:11:26.887Z,5.60
2023-04-19T20:13:55.785Z,5.13
2023-04-19T20:16:26.984Z,6.10
2023-04-19T20:18:59.976Z,4.77
2023-04-19T20:21:29.584Z,4.70
2023-04-19T20:23:58.642Z,5.03
2023-04-19T20:26:27.785Z,5.90
2023-04-19T20:28:58.949Z,6.17
2023-04-19T20:31:29.809Z,4.70
2023-04-19T20:33:59.025Z,5.03
2023-04-19T20:36:28.564Z,5.20
2023-04-19T20:38:58.994Z,4.77
2023-04-19T20:41:28.193Z,5.30
2023-04-19T20:43:59.988Z,5.07
2023-04-19T20:46:30.567Z,5.53
2023-04-19T20:48:59.454Z,5.33
2023-04-19T20:51:28.251Z,5.53
2023-04-19T20:53:57.099Z,5.83
2023-04-19T20:56:26.044Z,5.37
2023-04-19T20:58:55.279Z,5.93
2023-04-19T21:01:24.553Z,5.93
2023-04-19T21:03:54.961Z,5.77
2023-04-19T21:06:23.980Z,8.00
2023-04-19T21:08:52.819Z,5.60
2023-04-19T21:11:22.675Z,5.97
2023-04-19T21:13:52.725Z,6.13
2023-04-19T21:16:21.884Z,5.67
2023-04-19T21:18:50.640Z,7.20
2023-04-19T21:21:20.856Z,5.67
2023-04-19T21:23:49.769Z,5.83
2023-04-19T21:26:18.670Z,5.13
2023-04-19T21:28:47.619Z,5.37
2023-04-19T21:31:16.552Z,5.30
2023-04-19T21:33:45.492Z,5.27
2023-04-19T21:36:14.311Z,4.27
2023-04-19T21:38:44.524Z,4.73
2023-04-19T21:41:13.291Z,4.50
2023-04-19T21:43:42.064Z,5.07
2023-04-19T21:46:12.084Z,10.57
2023-04-19T21:48:40.869Z,10.70
2023-04-19T21:51:10.586Z,7.43
2023-04-19T21:53:39.350Z,4.10
2023-04-19T21:56:10.053Z,3.93
2023-04-19T21:58:39.108Z,4.47
2023-04-19T22:01:07.999Z,11.03
2023-04-19T22:03:37.684Z,7.03
2023-04-19T22:06:08.674Z,6.20
2023-04-19T22:08:37.515Z,4.13
2023-04-19T22:11:06.616Z,4.50
2023-04-19T22:13:37.587Z,4.70
2023-04-19T22:16:07.054Z,4.37
2023-04-19T22:18:35.978Z,4.63
2023-04-19T22:21:04.818Z,4.43
2023-04-19T22:23:33.624Z,4.50
2023-04-19T22:26:02.427Z,4.00
2023-04-19T22:28:31.481Z,4.40
2023-04-19T22:31:01.798Z,4.07
2023-04-19T22:33:30.599Z,4.40
2023-04-19T22:35:59.498Z,3.73
2023-04-19T22:38:28.603Z,3.90
2023-04-19T22:40:57.528Z,3.70
2023-04-19T22:43:26.457Z,4.83
2023-04-19T22:45:55.371Z,4.43
2023-04-19T22:48:25.954Z,4.57
2023-04-19T22:50:54.894Z,4.17
2023-04-19T22:53:24.041Z,4.20
2023-04-19T22:55:53.117Z,4.23
2023-04-19T22:58:21.934Z,4.53
2023-04-19T23:00:52.690Z,4.87
2023-04-19T23:03:21.793Z,4.47
2023-04-19T23:05:54.388Z,4.93
2023-04-19T23:08:23.506Z,4.33
2023-04-19T23:10:52.414Z,4.20
2023-04-19T23:13:21.304Z,4.37
2023-04-19T23:15:50.352Z,3.80
2023-04-19T23:18:19.335Z,3.40
2023-04-19T23:20:48.236Z,3.90
2023-04-19T23:23:20.072Z,3.50
2023-04-19T23:25:48.931Z,3.67
2023-04-19T23:28:17.757Z,3.70
2023-04-19T23:30:46.673Z,3.60
2023-04-19T23:33:15.566Z,3.20
2023-04-19T23:35:44.462Z,3.30
2023-04-19T23:38:13.425Z,3.43
2023-04-19T23:40:43.806Z,4.53
2023-04-19T23:43:12.570Z,4.07
2023-04-19T23:45:41.295Z,5.03
2023-04-19T23:48:10.105Z,4.50
2023-04-19T23:50:38.797Z,5.33
2023-04-19T23:53:07.612Z,3.57
2023-04-19T23:55:36.385Z,5.33
2023-04-19T23:58:06.821Z,3.77
